sensor_id;sensor_type;location;lat;lon;timestamp;temperature;humidity
41987;DHT22;28361;50.740;7.084;2023-06-14T00:01:38;20.30;1.00
41987;DHT22;28361;50.740;7.084;2023-06-14T00:04:04;20.20;1.00
41987;DHT22;28361;50.740;7.084;2023-06-14T00:06:31;20.20;1.00
41987;DHT22;28361;50.740;7.084;2023-06-14T00:08:59;20.20;1.00
41987;DHT22;28361;50.740;7.084;2023-06-14T00:11:24;20.20;1.00
41987;DHT22;28361;50.740;7.084;2023-06-14T00:13:52;20.10;1.00
41987;DHT22;28361;50.740;7.084;2023-06-14T00:16:17;20.10;1.00
41987;DHT22;28361;50.740;7.084;2023-06-14T00:18:45;20.10;1.00
41987;DHT22;28361;50.740;7.084;2023-06-14T00:21:11;20.00;1.00
41987;DHT22;28361;50.740;7.084;2023-06-14T00:23:37;19.90;1.00
41987;DHT22;28361;50.740;7.084;2023-06-14T00:26:03;19.90;1.00
41987;DHT22;28361;50.740;7.084;2023-06-14T00:28:29;19.80;1.00
41987;DHT22;28361;50.740;7.084;2023-06-14T00:30:55;19.80;1.00
41987;DHT22;28361;50.740;7.084;2023-06-14T00:33:20;19.80;1.00
41987;DHT22;28361;50.740;7.084;2023-06-14T00:35:46;19.70;1.00
41987;DHT22;28361;50.740;7.084;2023-06-14T00:38:12;19.70;1.00
41987;DHT22;28361;50.740;7.084;2023-06-14T00:40:38;19.70;1.00
41987;DHT22;28361;50.740;7.084;2023-06-14T00:43:04;19.80;1.00
41987;DHT22;28361;50.740;7.084;2023-06-14T00:45:29;19.60;1.00
41987;DHT22;28361;50.740;7.084;2023-06-14T00:47:56;19.70;1.00
41987;DHT22;28361;50.740;7.084;2023-06-14T00:50:23;19.60;1.00
41987;DHT22;28361;50.740;7.084;2023-06-14T00:52:49;19.70;1.00
41987;DHT22;28361;50.740;7.084;2023-06-14T00:55:15;19.70;1.00
41987;DHT22;28361;50.740;7.084;2023-06-14T00:57:41;19.70;1.00
41987;DHT22;28361;50.740;7.084;2023-06-14T01:00:07;19.50;1.00
41987;DHT22;28361;50.740;7.084;2023-06-14T01:02:38;19.30;1.00
41987;DHT22;28361;50.740;7.084;2023-06-14T01:05:05;19.10;1.00
41987;DHT22;28361;50.740;7.084;2023-06-14T01:08:00;18.90;1.00
41987;DHT22;28361;50.740;7.084;2023-06-14T01:10:39;18.90;1.00
41987;DHT22;28361;50.740;7.084;2023-06-14T01:13:19;18.80;1.00
41987;DHT22;28361;50.740;7.084;2023-06-14T01:15:46;18.50;1.00
41987;DHT22;28361;50.740;7.084;2023-06-14T01:18:12;18.40;1.00
41987;DHT22;28361;50.740;7.084;2023-06-14T01:20:43;18.40;1.00
41987;DHT22;28361;50.740;7.084;2023-06-14T01:23:10;18.40;1.00
41987;DHT22;28361;50.740;7.084;2023-06-14T01:25:37;18.40;1.00
41987;DHT22;28361;50.740;7.084;2023-06-14T01:28:05;18.50;1.00
41987;DHT22;28361;50.740;7.084;2023-06-14T01:30:42;18.60;1.00
41987;DHT22;28361;50.740;7.084;2023-06-14T01:33:12;18.60;1.00
41987;DHT22;28361;50.740;7.084;2023-06-14T01:35:38;18.60;1.00
41987;DHT22;28361;50.740;7.084;2023-06-14T01:38:06;18.70;1.00
41987;DHT22;28361;50.740;7.084;2023-06-14T01:40:34;18.60;1.00
41987;DHT22;28361;50.740;7.084;2023-06-14T01:43:01;18.50;1.00
41987;DHT22;28361;50.740;7.084;2023-06-14T01:45:28;18.50;1.00
41987;DHT22;28361;50.740;7.084;2023-06-14T01:47:55;18.40;1.00
41987;DHT22;28361;50.740;7.084;2023-06-14T01:50:21;18.40;1.00
41987;DHT22;28361;50.740;7.084;2023-06-14T01:52:46;18.40;1.00
41987;DHT22;28361;50.740;7.084;2023-06-14T01:55:12;18.30;1.00
41987;DHT22;28361;50.740;7.084;2023-06-14T01:57:38;18.40;1.00
41987;DHT22;28361;50.740;7.084;2023-06-14T02:00:04;18.40;1.00
41987;DHT22;28361;50.740;7.084;2023-06-14T02:02:33;18.50;1.00
41987;DHT22;28361;50.740;7.084;2023-06-14T02:04:59;18.50;1.00
41987;DHT22;28361;50.740;7.084;2023-06-14T02:07:24;18.50;1.00
41987;DHT22;28361;50.740;7.084;2023-06-14T02:09:50;18.40;1.00
41987;DHT22;28361;50.740;7.084;2023-06-14T02:12:16;18.20;1.00
41987;DHT22;28361;50.740;7.084;2023-06-14T02:14:42;18.10;1.00
41987;DHT22;28361;50.740;7.084;2023-06-14T02:17:07;18.10;1.00
41987;DHT22;28361;50.740;7.084;2023-06-14T02:19:33;18.00;1.00
41987;DHT22;28361;50.740;7.084;2023-06-14T02:21:59;18.00;1.00
41987;DHT22;28361;50.740;7.084;2023-06-14T02:24:24;18.00;1.00
41987;DHT22;28361;50.740;7.084;2023-06-14T02:26:50;18.00;1.00
41987;DHT22;28361;50.740;7.084;2023-06-14T02:29:16;17.80;1.00
41987;DHT22;28361;50.740;7.084;2023-06-14T02:31:41;17.70;1.00
41987;DHT22;28361;50.740;7.084;2023-06-14T02:34:07;17.70;1.00
41987;DHT22;28361;50.740;7.084;2023-06-14T02:36:35;17.70;1.00
41987;DHT22;28361;50.740;7.084;2023-06-14T02:39:07;17.50;1.00
41987;DHT22;28361;50.740;7.084;2023-06-14T02:41:34;17.40;1.00
41987;DHT22;28361;50.740;7.084;2023-06-14T02:44:00;17.30;1.00
41987;DHT22;28361;50.740;7.084;2023-06-14T02:46:26;17.30;1.00
41987;DHT22;28361;50.740;7.084;2023-06-14T02:48:51;17.30;1.00
41987;DHT22;28361;50.740;7.084;2023-06-14T02:51:17;17.20;1.00
41987;DHT22;28361;50.740;7.084;2023-06-14T02:53:42;17.20;1.00
41987;DHT22;28361;50.740;7.084;2023-06-14T02:56:09;17.30;1.00
41987;DHT22;28361;50.740;7.084;2023-06-14T02:58:36;17.50;1.00
41987;DHT22;28361;50.740;7.084;2023-06-14T03:01:02;17.50;1.00
41987;DHT22;28361;50.740;7.084;2023-06-14T03:03:28;17.40;1.00
41987;DHT22;28361;50.740;7.084;2023-06-14T03:05:54;17.30;1.00
41987;DHT22;28361;50.740;7.084;2023-06-14T03:08:20;17.20;1.00
41987;DHT22;28361;50.740;7.084;2023-06-14T03:10:46;17.30;1.00
41987;DHT22;28361;50.740;7.084;2023-06-14T03:13:13;17.20;1.00
41987;DHT22;28361;50.740;7.084;2023-06-14T03:15:39;17.30;1.00
41987;DHT22;28361;50.740;7.084;2023-06-14T03:18:08;17.20;1.00
41987;DHT22;28361;50.740;7.084;2023-06-14T03:20:35;17.10;1.00
41987;DHT22;28361;50.740;7.084;2023-06-14T03:23:01;17.20;1.00
41987;DHT22;28361;50.740;7.084;2023-06-14T03:25:28;17.10;1.00
41987;DHT22;28361;50.740;7.084;2023-06-14T03:27:58;17.10;1.00
41987;DHT22;28361;50.740;7.084;2023-06-14T03:30:24;17.20;1.00
41987;DHT22;28361;50.740;7.084;2023-06-14T03:32:49;17.30;1.00
41987;DHT22;28361;50.740;7.084;2023-06-14T03:35:18;17.40;1.00
41987;DHT22;28361;50.740;7.084;2023-06-14T03:37:44;17.40;1.00
41987;DHT22;28361;50.740;7.084;2023-06-14T03:40:12;17.30;1.00
41987;DHT22;28361;50.740;7.084;2023-06-14T03:42:39;17.30;1.00
41987;DHT22;28361;50.740;7.084;2023-06-14T03:45:05;17.30;1.00
41987;DHT22;28361;50.740;7.084;2023-06-14T03:47:31;17.20;1.00
41987;DHT22;28361;50.740;7.084;2023-06-14T03:49:57;17.10;1.00
41987;DHT22;28361;50.740;7.084;2023-06-14T03:52:23;17.00;1.00
41987;DHT22;28361;50.740;7.084;2023-06-14T03:54:49;16.90;1.00
41987;DHT22;28361;50.740;7.084;2023-06-14T03:57:15;16.80;1.00
41987;DHT22;28361;50.740;7.084;2023-06-14T03:59:41;16.70;1.00
41987;DHT22;28361;50.740;7.084;2023-06-14T04:02:07;16.70;1.00
41987;DHT22;28361;50.740;7.084;2023-06-14T04:04:35;16.60;1.00
41987;DHT22;28361;50.740;7.084;2023-06-14T04:07:01;16.60;1.00
41987;DHT22;28361;50.740;7.084;2023-06-14T04:09:29;16.70;1.00
41987;DHT22;28361;50.740;7.084;2023-06-14T04:11:55;16.80;1.00
41987;DHT22;28361;50.740;7.084;2023-06-14T04:14:21;16.80;1.00
41987;DHT22;28361;50.740;7.084;2023-06-14T04:16:48;16.80;1.00
41987;DHT22;28361;50.740;7.084;2023-06-14T04:19:15;16.90;1.00
41987;DHT22;28361;50.740;7.084;2023-06-14T04:21:41;16.90;1.00
41987;DHT22;28361;50.740;7.084;2023-06-14T04:24:07;16.90;1.00
41987;DHT22;28361;50.740;7.084;2023-06-14T04:26:38;17.00;1.00
41987;DHT22;28361;50.740;7.084;2023-06-14T04:29:05;17.10;1.00
41987;DHT22;28361;50.740;7.084;2023-06-14T04:31:31;17.30;1.00
41987;DHT22;28361;50.740;7.084;2023-06-14T04:34:03;17.30;1.00
41987;DHT22;28361;50.740;7.084;2023-06-14T04:36:32;17.40;1.00
41987;DHT22;28361;50.740;7.084;2023-06-14T04:39:00;17.70;1.00
41987;DHT22;28361;50.740;7.084;2023-06-14T04:41:32;17.80;1.00
41987;DHT22;28361;50.740;7.084;2023-06-14T04:43:59;17.90;1.00
41987;DHT22;28361;50.740;7.084;2023-06-14T04:46:30;18.00;1.00
41987;DHT22;28361;50.740;7.084;2023-06-14T04:48:57;18.20;1.00
41987;DHT22;28361;50.740;7.084;2023-06-14T04:51:28;18.30;1.00
41987;DHT22;28361;50.740;7.084;2023-06-14T04:53:58;18.50;1.00
41987;DHT22;28361;50.740;7.084;2023-06-14T04:56:24;18.60;1.00
41987;DHT22;28361;50.740;7.084;2023-06-14T04:58:55;18.70;1.00
41987;DHT22;28361;50.740;7.084;2023-06-14T05:01:22;18.70;1.00
41987;DHT22;28361;50.740;7.084;2023-06-14T05:03:49;18.80;1.00
41987;DHT22;28361;50.740;7.084;2023-06-14T05:06:15;18.90;1.00
41987;DHT22;28361;50.740;7.084;2023-06-14T05:08:43;19.00;1.00
41987;DHT22;28361;50.740;7.084;2023-06-14T05:11:09;19.00;1.00
41987;DHT22;28361;50.740;7.084;2023-06-14T05:13:34;19.10;1.00
41987;DHT22;28361;50.740;7.084;2023-06-14T05:16:00;19.10;1.00
41987;DHT22;28361;50.740;7.084;2023-06-14T05:18:26;19.20;1.00
41987;DHT22;28361;50.740;7.084;2023-06-14T05:20:52;19.30;1.00
41987;DHT22;28361;50.740;7.084;2023-06-14T05:23:17;19.40;1.00
41987;DHT22;28361;50.740;7.084;2023-06-14T05:25:44;19.40;1.00
41987;DHT22;28361;50.740;7.084;2023-06-14T05:28:09;19.50;1.00
41987;DHT22;28361;50.740;7.084;2023-06-14T05:30:37;19.60;1.00
41987;DHT22;28361;50.740;7.084;2023-06-14T05:33:03;19.60;1.00
41987;DHT22;28361;50.740;7.084;2023-06-14T05:35:29;19.70;1.00
41987;DHT22;28361;50.740;7.084;2023-06-14T05:37:55;19.70;1.00
41987;DHT22;28361;50.740;7.084;2023-06-14T05:40:21;19.80;1.00
41987;DHT22;28361;50.740;7.084;2023-06-14T05:42:46;19.90;1.00
41987;DHT22;28361;50.740;7.084;2023-06-14T05:45:12;19.90;1.00
41987;DHT22;28361;50.740;7.084;2023-06-14T05:47:38;20.00;1.00
41987;DHT22;28361;50.740;7.084;2023-06-14T05:50:04;20.00;1.00
41987;DHT22;28361;50.740;7.084;2023-06-14T05:52:29;20.10;1.00
41987;DHT22;28361;50.740;7.084;2023-06-14T05:54:56;20.10;1.00
41987;DHT22;28361;50.740;7.084;2023-06-14T05:57:22;20.20;1.00
41987;DHT22;28361;50.740;7.084;2023-06-14T05:59:48;20.30;1.00
41987;DHT22;28361;50.740;7.084;2023-06-14T06:02:13;20.30;1.00
41987;DHT22;28361;50.740;7.084;2023-06-14T06:04:39;20.20;1.00
41987;DHT22;28361;50.740;7.084;2023-06-14T06:07:05;20.30;1.00
41987;DHT22;28361;50.740;7.084;2023-06-14T06:09:31;20.30;1.00
41987;DHT22;28361;50.740;7.084;2023-06-14T06:11:56;20.40;1.00
41987;DHT22;28361;50.740;7.084;2023-06-14T06:14:22;20.30;1.00
41987;DHT22;28361;50.740;7.084;2023-06-14T06:16:48;20.40;1.00
41987;DHT22;28361;50.740;7.084;2023-06-14T06:19:13;20.40;1.00
41987;DHT22;28361;50.740;7.084;2023-06-14T06:21:39;20.50;1.00
41987;DHT22;28361;50.740;7.084;2023-06-14T06:24:05;20.60;1.00
41987;DHT22;28361;50.740;7.084;2023-06-14T06:26:31;20.60;1.00
41987;DHT22;28361;50.740;7.084;2023-06-14T06:28:58;20.50;1.00
41987;DHT22;28361;50.740;7.084;2023-06-14T06:31:24;20.50;1.00
41987;DHT22;28361;50.740;7.084;2023-06-14T06:33:50;20.50;1.00
41987;DHT22;28361;50.740;7.084;2023-06-14T06:36:15;20.50;1.00
41987;DHT22;28361;50.740;7.084;2023-06-14T06:38:41;20.50;1.00
41987;DHT22;28361;50.740;7.084;2023-06-14T06:41:07;20.50;1.00
41987;DHT22;28361;50.740;7.084;2023-06-14T06:43:33;20.50;1.00
41987;DHT22;28361;50.740;7.084;2023-06-14T06:45:58;20.70;1.00
41987;DHT22;28361;50.740;7.084;2023-06-14T06:48:24;20.70;1.00
41987;DHT22;28361;50.740;7.084;2023-06-14T06:50:50;20.60;1.00
41987;DHT22;28361;50.740;7.084;2023-06-14T06:53:16;20.70;1.00
41987;DHT22;28361;50.740;7.084;2023-06-14T06:55:44;20.80;1.00
41987;DHT22;28361;50.740;7.084;2023-06-14T06:58:10;20.80;1.00
41987;DHT22;28361;50.740;7.084;2023-06-14T07:00:36;21.00;1.00
41987;DHT22;28361;50.740;7.084;2023-06-14T07:03:01;21.00;1.00
41987;DHT22;28361;50.740;7.084;2023-06-14T07:05:29;21.10;1.00
41987;DHT22;28361;50.740;7.084;2023-06-14T07:07:55;21.10;1.00
41987;DHT22;28361;50.740;7.084;2023-06-14T07:10:21;21.30;1.00
41987;DHT22;28361;50.740;7.084;2023-06-14T07:12:47;21.40;1.00
41987;DHT22;28361;50.740;7.084;2023-06-14T07:15:12;21.40;1.00
41987;DHT22;28361;50.740;7.084;2023-06-14T07:17:38;21.40;1.00
41987;DHT22;28361;50.740;7.084;2023-06-14T07:20:04;21.60;1.00
41987;DHT22;28361;50.740;7.084;2023-06-14T07:22:33;21.70;1.00
41987;DHT22;28361;50.740;7.084;2023-06-14T07:24:59;21.80;1.00
41987;DHT22;28361;50.740;7.084;2023-06-14T07:27:24;21.80;1.00
41987;DHT22;28361;50.740;7.084;2023-06-14T07:29:50;21.90;1.00
41987;DHT22;28361;50.740;7.084;2023-06-14T07:32:16;22.10;1.00
41987;DHT22;28361;50.740;7.084;2023-06-14T07:34:41;22.20;1.00
41987;DHT22;28361;50.740;7.084;2023-06-14T07:37:07;22.40;1.00
41987;DHT22;28361;50.740;7.084;2023-06-14T07:39:32;22.60;1.00
41987;DHT22;28361;50.740;7.084;2023-06-14T07:41:58;22.70;1.00
41987;DHT22;28361;50.740;7.084;2023-06-14T07:44:24;22.50;1.00
41987;DHT22;28361;50.740;7.084;2023-06-14T07:46:49;22.60;1.00
41987;DHT22;28361;50.740;7.084;2023-06-14T07:49:15;23.00;1.00
41987;DHT22;28361;50.740;7.084;2023-06-14T07:51:41;23.20;1.00
41987;DHT22;28361;50.740;7.084;2023-06-14T07:54:07;23.40;1.00
41987;DHT22;28361;50.740;7.084;2023-06-14T07:56:34;23.60;1.00
41987;DHT22;28361;50.740;7.084;2023-06-14T07:59:01;23.80;1.00
41987;DHT22;28361;50.740;7.084;2023-06-14T08:01:26;24.10;1.00
41987;DHT22;28361;50.740;7.084;2023-06-14T08:03:53;24.00;1.00
41987;DHT22;28361;50.740;7.084;2023-06-14T08:06:18;24.10;1.00
41987;DHT22;28361;50.740;7.084;2023-06-14T08:08:44;24.10;1.00
41987;DHT22;28361;50.740;7.084;2023-06-14T08:11:10;23.70;1.00
41987;DHT22;28361;50.740;7.084;2023-06-14T08:13:35;23.80;1.00
41987;DHT22;28361;50.740;7.084;2023-06-14T08:16:01;23.80;1.00
41987;DHT22;28361;50.740;7.084;2023-06-14T08:18:27;24.00;1.00
41987;DHT22;28361;50.740;7.084;2023-06-14T08:20:53;24.50;1.00
41987;DHT22;28361;50.740;7.084;2023-06-14T08:23:19;24.40;1.00
41987;DHT22;28361;50.740;7.084;2023-06-14T08:25:46;25.00;1.00
41987;DHT22;28361;50.740;7.084;2023-06-14T08:28:12;25.10;1.00
41987;DHT22;28361;50.740;7.084;2023-06-14T08:30:38;25.50;1.00
41987;DHT22;28361;50.740;7.084;2023-06-14T08:33:03;25.70;1.00
41987;DHT22;28361;50.740;7.084;2023-06-14T08:35:29;25.70;1.00
41987;DHT22;28361;50.740;7.084;2023-06-14T08:37:54;26.00;1.00
41987;DHT22;28361;50.740;7.084;2023-06-14T08:40:23;25.80;1.00
41987;DHT22;28361;50.740;7.084;2023-06-14T08:42:53;26.10;1.00
41987;DHT22;28361;50.740;7.084;2023-06-14T08:45:21;26.10;1.00
41987;DHT22;28361;50.740;7.084;2023-06-14T08:47:47;26.10;1.00
41987;DHT22;28361;50.740;7.084;2023-06-14T08:50:23;26.10;1.00
41987;DHT22;28361;50.740;7.084;2023-06-14T08:52:54;26.30;1.00
41987;DHT22;28361;50.740;7.084;2023-06-14T08:55:23;26.60;1.00
41987;DHT22;28361;50.740;7.084;2023-06-14T08:57:54;26.50;1.00
41987;DHT22;28361;50.740;7.084;2023-06-14T09:00:20;26.80;1.00
41987;DHT22;28361;50.740;7.084;2023-06-14T09:02:47;26.80;1.00
41987;DHT22;28361;50.740;7.084;2023-06-14T09:05:14;26.30;1.00
41987;DHT22;28361;50.740;7.084;2023-06-14T09:07:40;26.30;1.00
41987;DHT22;28361;50.740;7.084;2023-06-14T09:10:12;26.20;1.00
41987;DHT22;28361;50.740;7.084;2023-06-14T09:12:38;26.20;1.00
41987;DHT22;28361;50.740;7.084;2023-06-14T09:15:05;26.50;1.00
41987;DHT22;28361;50.740;7.084;2023-06-14T09:17:38;26.60;1.00
41987;DHT22;28361;50.740;7.084;2023-06-14T09:20:08;26.40;1.00
41987;DHT22;28361;50.740;7.084;2023-06-14T09:22:39;26.80;1.00
41987;DHT22;28361;50.740;7.084;2023-06-14T09:25:06;27.10;1.00
41987;DHT22;28361;50.740;7.084;2023-06-14T09:27:32;27.30;1.00
41987;DHT22;28361;50.740;7.084;2023-06-14T09:29:58;27.30;1.00
41987;DHT22;28361;50.740;7.084;2023-06-14T09:32:24;27.20;1.00
41987;DHT22;28361;50.740;7.084;2023-06-14T09:34:50;27.30;1.00
41987;DHT22;28361;50.740;7.084;2023-06-14T09:37:32;27.70;1.00
41987;DHT22;28361;50.740;7.084;2023-06-14T09:39:58;28.00;1.00
41987;DHT22;28361;50.740;7.084;2023-06-14T09:42:25;28.20;1.00
41987;DHT22;28361;50.740;7.084;2023-06-14T09:44:52;27.80;1.00
41987;DHT22;28361;50.740;7.084;2023-06-14T09:47:19;27.80;1.00
41987;DHT22;28361;50.740;7.084;2023-06-14T09:49:45;27.30;1.00
41987;DHT22;28361;50.740;7.084;2023-06-14T09:52:18;27.70;1.00
41987;DHT22;28361;50.740;7.084;2023-06-14T09:54:46;28.00;1.00
41987;DHT22;28361;50.740;7.084;2023-06-14T09:57:13;27.80;1.00
41987;DHT22;28361;50.740;7.084;2023-06-14T09:59:45;27.90;1.00
41987;DHT22;28361;50.740;7.084;2023-06-14T10:02:36;28.50;1.00
41987;DHT22;28361;50.740;7.084;2023-06-14T10:05:07;28.30;1.00
41987;DHT22;28361;50.740;7.084;2023-06-14T10:07:52;28.60;1.00
41987;DHT22;28361;50.740;7.084;2023-06-14T10:10:18;28.20;1.00
41987;DHT22;28361;50.740;7.084;2023-06-14T10:12:44;28.30;1.00
41987;DHT22;28361;50.740;7.084;2023-06-14T10:23:53;27.80;1.00
41987;DHT22;28361;50.740;7.084;2023-06-14T10:26:23;27.50;1.00
41987;DHT22;28361;50.740;7.084;2023-06-14T10:31:40;27.90;1.00
41987;DHT22;28361;50.740;7.084;2023-06-14T10:34:07;28.50;1.00
41987;DHT22;28361;50.740;7.084;2023-06-14T10:36:33;29.20;1.00
41987;DHT22;28361;50.740;7.084;2023-06-14T10:39:17;29.30;1.00
41987;DHT22;28361;50.740;7.084;2023-06-14T10:41:53;29.20;1.00
41987;DHT22;28361;50.740;7.084;2023-06-14T10:46:48;29.20;1.00
41987;DHT22;28361;50.740;7.084;2023-06-14T10:49:20;29.40;1.00
41987;DHT22;28361;50.740;7.084;2023-06-14T10:52:03;29.50;1.00
41987;DHT22;28361;50.740;7.084;2023-06-14T10:54:28;29.90;1.00
41987;DHT22;28361;50.740;7.084;2023-06-14T10:56:54;29.50;1.00
41987;DHT22;28361;50.740;7.084;2023-06-14T10:59:21;29.70;1.00
41987;DHT22;28361;50.740;7.084;2023-06-14T11:04:46;30.00;1.00
41987;DHT22;28361;50.740;7.084;2023-06-14T11:10:40;30.10;1.00
41987;DHT22;28361;50.740;7.084;2023-06-14T11:13:09;29.50;1.00
41987;DHT22;28361;50.740;7.084;2023-06-14T11:15:38;28.70;1.00
41987;DHT22;28361;50.740;7.084;2023-06-14T11:18:08;29.10;1.00
41987;DHT22;28361;50.740;7.084;2023-06-14T11:20:36;28.90;1.00
41987;DHT22;28361;50.740;7.084;2023-06-14T11:23:03;28.40;1.00
41987;DHT22;28361;50.740;7.084;2023-06-14T11:25:29;29.20;1.00
41987;DHT22;28361;50.740;7.084;2023-06-14T11:27:55;29.00;1.00
41987;DHT22;28361;50.740;7.084;2023-06-14T11:30:21;28.50;1.00
41987;DHT22;28361;50.740;7.084;2023-06-14T11:32:52;28.00;1.00
41987;DHT22;28361;50.740;7.084;2023-06-14T11:35:19;27.80;1.00
41987;DHT22;28361;50.740;7.084;2023-06-14T11:37:48;27.70;1.00
41987;DHT22;28361;50.740;7.084;2023-06-14T11:40:14;27.20;1.00
41987;DHT22;28361;50.740;7.084;2023-06-14T11:42:41;26.80;1.00
41987;DHT22;28361;50.740;7.084;2023-06-14T11:45:11;27.70;1.00
41987;DHT22;28361;50.740;7.084;2023-06-14T11:47:38;27.90;1.00
41987;DHT22;28361;50.740;7.084;2023-06-14T11:50:06;27.70;1.00
41987;DHT22;28361;50.740;7.084;2023-06-14T11:52:32;27.10;1.00
41987;DHT22;28361;50.740;7.084;2023-06-14T11:54:58;26.60;1.00
41987;DHT22;28361;50.740;7.084;2023-06-14T11:57:24;26.30;1.00
41987;DHT22;28361;50.740;7.084;2023-06-14T11:59:51;26.50;1.00
41987;DHT22;28361;50.740;7.084;2023-06-14T12:02:18;27.30;1.00
41987;DHT22;28361;50.740;7.084;2023-06-14T12:04:47;27.30;1.00
41987;DHT22;28361;50.740;7.084;2023-06-14T12:07:17;27.50;1.00
41987;DHT22;28361;50.740;7.084;2023-06-14T12:12:24;27.70;1.00
41987;DHT22;28361;50.740;7.084;2023-06-14T12:14:53;27.80;1.00
41987;DHT22;28361;50.740;7.084;2023-06-14T12:17:19;28.00;1.00
41987;DHT22;28361;50.740;7.084;2023-06-14T12:19:46;28.00;1.00
41987;DHT22;28361;50.740;7.084;2023-06-14T12:22:13;28.20;1.00
41987;DHT22;28361;50.740;7.084;2023-06-14T12:24:39;28.30;1.00
41987;DHT22;28361;50.740;7.084;2023-06-14T12:27:08;27.70;1.00
41987;DHT22;28361;50.740;7.084;2023-06-14T12:29:34;27.20;1.00
41987;DHT22;28361;50.740;7.084;2023-06-14T12:32:00;27.70;1.00
41987;DHT22;28361;50.740;7.084;2023-06-14T12:34:29;28.20;1.00
41987;DHT22;28361;50.740;7.084;2023-06-14T12:36:56;28.00;1.00
41987;DHT22;28361;50.740;7.084;2023-06-14T12:39:22;28.20;1.00
41987;DHT22;28361;50.740;7.084;2023-06-14T12:41:48;28.60;1.00
41987;DHT22;28361;50.740;7.084;2023-06-14T12:44:14;28.70;1.00
41987;DHT22;28361;50.740;7.084;2023-06-14T12:46:43;28.70;1.00
41987;DHT22;28361;50.740;7.084;2023-06-14T12:49:10;29.00;1.00
41987;DHT22;28361;50.740;7.084;2023-06-14T12:51:40;29.00;1.00
41987;DHT22;28361;50.740;7.084;2023-06-14T12:54:05;28.80;1.00
41987;DHT22;28361;50.740;7.084;2023-06-14T12:56:31;29.00;1.00
41987;DHT22;28361;50.740;7.084;2023-06-14T12:58:58;29.50;1.00
41987;DHT22;28361;50.740;7.084;2023-06-14T13:01:23;28.60;1.00
41987;DHT22;28361;50.740;7.084;2023-06-14T13:03:49;29.10;1.00
41987;DHT22;28361;50.740;7.084;2023-06-14T13:06:17;28.90;1.00
41987;DHT22;28361;50.740;7.084;2023-06-14T13:08:43;29.00;1.00
41987;DHT22;28361;50.740;7.084;2023-06-14T13:11:09;28.10;1.00
41987;DHT22;28361;50.740;7.084;2023-06-14T13:13:35;28.90;1.00
41987;DHT22;28361;50.740;7.084;2023-06-14T13:16:00;29.20;1.00
41987;DHT22;28361;50.740;7.084;2023-06-14T13:18:26;29.30;1.00
41987;DHT22;28361;50.740;7.084;2023-06-14T13:20:51;29.00;1.00
41987;DHT22;28361;50.740;7.084;2023-06-14T13:23:17;27.90;1.00
41987;DHT22;28361;50.740;7.084;2023-06-14T13:25:43;26.80;1.00
41987;DHT22;28361;50.740;7.084;2023-06-14T13:28:09;27.00;1.00
41987;DHT22;28361;50.740;7.084;2023-06-14T13:30:35;28.10;1.00
41987;DHT22;28361;50.740;7.084;2023-06-14T13:33:01;28.80;1.00
41987;DHT22;28361;50.740;7.084;2023-06-14T13:35:27;28.60;1.00
41987;DHT22;28361;50.740;7.084;2023-06-14T13:37:53;28.40;1.00
41987;DHT22;28361;50.740;7.084;2023-06-14T13:40:19;28.80;1.00
41987;DHT22;28361;50.740;7.084;2023-06-14T13:42:45;28.70;1.00
41987;DHT22;28361;50.740;7.084;2023-06-14T13:45:12;28.30;1.00
41987;DHT22;28361;50.740;7.084;2023-06-14T13:47:38;28.70;1.00
41987;DHT22;28361;50.740;7.084;2023-06-14T13:50:04;28.80;1.00
41987;DHT22;28361;50.740;7.084;2023-06-14T13:52:30;28.70;1.00
41987;DHT22;28361;50.740;7.084;2023-06-14T13:54:56;29.20;1.00
41987;DHT22;28361;50.740;7.084;2023-06-14T13:57:22;28.80;1.00
41987;DHT22;28361;50.740;7.084;2023-06-14T13:59:48;29.40;1.00
41987;DHT22;28361;50.740;7.084;2023-06-14T14:02:14;29.80;1.00
41987;DHT22;28361;50.740;7.084;2023-06-14T14:04:40;29.40;1.00
41987;DHT22;28361;50.740;7.084;2023-06-14T14:07:06;29.60;1.00
41987;DHT22;28361;50.740;7.084;2023-06-14T14:09:33;30.20;1.00
41987;DHT22;28361;50.740;7.084;2023-06-14T14:12:00;30.80;1.00
41987;DHT22;28361;50.740;7.084;2023-06-14T14:14:26;30.60;1.00
41987;DHT22;28361;50.740;7.084;2023-06-14T14:16:52;30.40;1.00
41987;DHT22;28361;50.740;7.084;2023-06-14T14:19:23;30.40;1.00
41987;DHT22;28361;50.740;7.084;2023-06-14T14:21:49;30.40;1.00
41987;DHT22;28361;50.740;7.084;2023-06-14T14:24:14;31.00;1.00
41987;DHT22;28361;50.740;7.084;2023-06-14T14:26:41;31.30;1.00
41987;DHT22;28361;50.740;7.084;2023-06-14T14:29:06;30.00;1.00
41987;DHT22;28361;50.740;7.084;2023-06-14T14:31:32;28.60;1.00
41987;DHT22;28361;50.740;7.084;2023-06-14T14:33:58;28.30;1.00
41987;DHT22;28361;50.740;7.084;2023-06-14T14:36:23;29.20;1.00
41987;DHT22;28361;50.740;7.084;2023-06-14T14:38:49;28.70;1.00
41987;DHT22;28361;50.740;7.084;2023-06-14T14:41:17;28.60;1.00
41987;DHT22;28361;50.740;7.084;2023-06-14T14:43:43;29.30;1.00
41987;DHT22;28361;50.740;7.084;2023-06-14T14:46:09;30.20;1.00
41987;DHT22;28361;50.740;7.084;2023-06-14T14:48:35;30.00;1.00
41987;DHT22;28361;50.740;7.084;2023-06-14T14:51:01;30.50;1.00
41987;DHT22;28361;50.740;7.084;2023-06-14T14:53:27;29.80;1.00
41987;DHT22;28361;50.740;7.084;2023-06-14T14:55:52;30.40;1.00
41987;DHT22;28361;50.740;7.084;2023-06-14T14:58:18;31.00;1.00
41987;DHT22;28361;50.740;7.084;2023-06-14T15:00:47;30.40;1.00
41987;DHT22;28361;50.740;7.084;2023-06-14T15:03:13;29.10;1.00
41987;DHT22;28361;50.740;7.084;2023-06-14T15:05:39;30.10;1.00
41987;DHT22;28361;50.740;7.084;2023-06-14T15:08:05;30.20;1.00
41987;DHT22;28361;50.740;7.084;2023-06-14T15:10:40;30.00;1.00
41987;DHT22;28361;50.740;7.084;2023-06-14T15:13:10;29.90;1.00
41987;DHT22;28361;50.740;7.084;2023-06-14T15:15:36;29.30;1.00
41987;DHT22;28361;50.740;7.084;2023-06-14T15:18:03;29.60;1.00
41987;DHT22;28361;50.740;7.084;2023-06-14T15:20:29;29.50;1.00
41987;DHT22;28361;50.740;7.084;2023-06-14T15:22:54;30.20;1.00
41987;DHT22;28361;50.740;7.084;2023-06-14T15:25:28;29.50;1.00
41987;DHT22;28361;50.740;7.084;2023-06-14T15:27:54;28.90;1.00
41987;DHT22;28361;50.740;7.084;2023-06-14T15:30:20;28.80;1.00
41987;DHT22;28361;50.740;7.084;2023-06-14T15:32:46;29.50;1.00
41987;DHT22;28361;50.740;7.084;2023-06-14T15:35:11;29.30;1.00
41987;DHT22;28361;50.740;7.084;2023-06-14T15:37:37;29.20;1.00
41987;DHT22;28361;50.740;7.084;2023-06-14T15:40:04;30.20;1.00
41987;DHT22;28361;50.740;7.084;2023-06-14T15:42:30;30.00;1.00
41987;DHT22;28361;50.740;7.084;2023-06-14T15:44:55;28.50;1.00
41987;DHT22;28361;50.740;7.084;2023-06-14T15:47:21;28.30;1.00
41987;DHT22;28361;50.740;7.084;2023-06-14T15:49:47;28.30;1.00
41987;DHT22;28361;50.740;7.084;2023-06-14T15:52:12;28.50;1.00
41987;DHT22;28361;50.740;7.084;2023-06-14T15:54:38;28.40;1.00
41987;DHT22;28361;50.740;7.084;2023-06-14T15:57:04;29.00;1.00
41987;DHT22;28361;50.740;7.084;2023-06-14T15:59:29;29.20;1.00
41987;DHT22;28361;50.740;7.084;2023-06-14T16:01:55;29.60;1.00
41987;DHT22;28361;50.740;7.084;2023-06-14T16:04:21;30.10;1.00
41987;DHT22;28361;50.740;7.084;2023-06-14T16:06:46;30.80;1.00